createdAt,value
2023-06-11T00:00:22.433Z,5.00
2023-06-11T00:02:55.293Z,4.60
2023-06-11T00:05:23.968Z,4.30
2023-06-11T00:07:52.261Z,4.73
2023-06-11T00:10:20.398Z,4.57
2023-06-11T00:12:48.421Z,4.43
2023-06-11T00:15:20.040Z,4.80
2023-06-11T00:17:50.009Z,4.90
2023-06-11T00:20:18.000Z,4.40
2023-06-11T00:22:46.229Z,5.03
2023-06-11T00:25:16.688Z,5.00
2023-06-11T00:27:45.060Z,4.93
2023-06-11T00:30:14.428Z,4.70
2023-06-11T00:32:42.662Z,4.80
2023-06-11T00:35:12.601Z,5.13
2023-06-11T00:37:40.778Z,5.87
2023-06-11T00:40:12.173Z,5.30
2023-06-11T00:42:48.094Z,4.60
2023-06-11T00:45:16.231Z,4.90
2023-06-11T00:47:44.568Z,5.03
2023-06-11T00:50:16.490Z,5.03
2023-06-11T00:52:44.768Z,5.20
2023-06-11T00:55:13.304Z,5.20
2023-06-11T00:57:42.445Z,5.40
2023-06-11T01:00:13.705Z,5.00
2023-06-11T01:02:46.083Z,5.17
2023-06-11T01:05:19.422Z,4.93
2023-06-11T01:07:52.392Z,5.07
2023-06-11T01:10:21.323Z,5.10
2023-06-11T01:12:49.921Z,5.60
2023-06-11T01:15:18.575Z,5.47
2023-06-11T01:17:53.943Z,5.13
2023-06-11T01:20:35.862Z,5.10
2023-06-11T01:23:18.834Z,5.73
2023-06-11T01:25:57.256Z,5.97
2023-06-11T01:28:32.115Z,5.60
2023-06-11T01:31:05.511Z,5.47
2023-06-11T01:33:36.969Z,5.57
2023-06-11T01:36:06.710Z,6.30
2023-06-11T01:38:42.794Z,5.60
2023-06-11T01:41:12.618Z,5.33
2023-06-11T01:43:42.495Z,5.97
2023-06-11T01:46:10.548Z,5.60
2023-06-11T01:48:38.570Z,5.60
2023-06-11T01:51:08.126Z,5.10
2023-06-11T01:53:36.358Z,5.50
2023-06-11T01:56:19.470Z,5.70
2023-06-11T01:58:49.059Z,5.67
2023-06-11T02:01:17.068Z,5.93
2023-06-11T02:03:45.545Z,5.77
2023-06-11T02:06:14.206Z,5.40
2023-06-11T02:08:42.221Z,5.17
2023-06-11T02:11:11.667Z,5.57
2023-06-11T02:13:39.605Z,5.47
2023-06-11T02:16:09.417Z,5.63
2023-06-11T02:18:37.556Z,5.63
2023-06-11T02:21:05.654Z,4.93
2023-06-11T02:23:33.897Z,5.57
2023-06-11T02:26:01.822Z,5.53
2023-06-11T02:28:32.503Z,5.30
2023-06-11T02:31:00.625Z,5.53
2023-06-11T02:33:29.953Z,6.27
2023-06-11T02:35:58.411Z,5.43
2023-06-11T02:38:26.379Z,5.63
2023-06-11T02:40:54.405Z,5.57
2023-06-11T02:43:22.353Z,6.20
2023-06-11T02:45:50.347Z,5.00
2023-06-11T02:48:18.391Z,5.20
2023-06-11T02:50:49.596Z,5.00
2023-06-11T02:53:17.594Z,5.30
2023-06-11T02:55:45.670Z,5.80
2023-06-11T02:58:13.631Z,5.03
2023-06-11T03:00:41.597Z,5.17
2023-06-11T03:03:09.923Z,5.63
2023-06-11T03:05:37.968Z,5.20
2023-06-11T03:08:07.424Z,5.63
2023-06-11T03:10:35.426Z,5.73
2023-06-11T03:13:03.857Z,5.40
2023-06-11T03:15:32.017Z,5.10
2023-06-11T03:18:00.165Z,5.13
2023-06-11T03:20:28.214Z,5.97
2023-06-11T03:22:56.146Z,5.40
2023-06-11T03:25:25.432Z,5.40
2023-06-11T03:27:53.489Z,4.93
2023-06-11T03:30:21.452Z,5.27
2023-06-11T03:32:49.454Z,5.60
2023-06-11T03:35:18.263Z,5.53
2023-06-11T03:37:46.519Z,5.60
2023-06-11T03:40:14.814Z,5.90
2023-06-11T03:42:44.252Z,5.47
2023-06-11T03:45:12.755Z,5.47
2023-06-11T03:47:41.145Z,5.60
2023-06-11T03:50:10.113Z,5.20
2023-06-11T03:52:41.987Z,5.37
2023-06-11T03:55:11.273Z,5.50
2023-06-11T03:57:39.449Z,5.03
2023-06-11T04:00:39.023Z,5.87
2023-06-11T04:03:07.227Z,5.47
2023-06-11T04:05:44.316Z,5.90
2023-06-11T04:08:12.289Z,5.80
2023-06-11T04:10:40.540Z,5.50
2023-06-11T04:13:08.567Z,5.10
2023-06-11T04:15:37.948Z,5.93
2023-06-11T04:18:06.463Z,6.10
2023-06-11T04:20:37.595Z,5.30
2023-06-11T04:23:05.615Z,5.60
2023-06-11T04:25:34.945Z,5.70
2023-06-11T04:28:02.864Z,5.40
2023-06-11T04:30:32.662Z,5.70
2023-06-11T04:33:05.752Z,5.67
2023-06-11T04:35:35.782Z,4.83
2023-06-11T04:38:13.297Z,5.07
2023-06-11T04:40:41.430Z,4.97
2023-06-11T04:43:09.354Z,5.17
2023-06-11T04:45:46.914Z,5.13
2023-06-11T04:48:22.823Z,5.60
2023-06-11T04:50:52.233Z,5.17
2023-06-11T04:53:26.496Z,5.30
2023-06-11T04:55:56.781Z,5.17
2023-06-11T04:58:25.139Z,5.30
2023-06-11T05:00:58.081Z,5.20
2023-06-11T05:03:35.474Z,5.40
2023-06-11T05:06:03.435Z,5.20
2023-06-11T05:08:31.484Z,5.33
2023-06-11T05:10:59.580Z,4.93
2023-06-11T05:13:27.817Z,4.70
2023-06-11T05:15:56.614Z,5.23
2023-06-11T05:18:26.373Z,5.53
2023-06-11T05:20:56.131Z,5.23
2023-06-11T05:23:29.673Z,5.10
2023-06-11T05:26:02.229Z,5.13
2023-06-11T05:28:30.414Z,5.30
2023-06-11T05:31:00.575Z,5.03
2023-06-11T05:33:29.486Z,5.33
2023-06-11T05:35:59.142Z,4.87
2023-06-11T05:38:27.113Z,5.10
2023-06-11T05:40:55.909Z,5.33
2023-06-11T05:43:24.408Z,5.50
2023-06-11T05:45:52.725Z,5.47
2023-06-11T05:48:20.912Z,4.80
2023-06-11T05:50:49.112Z,5.57
2023-06-11T05:53:18.409Z,4.70
2023-06-11T05:55:46.384Z,5.40
2023-06-11T05:58:14.442Z,4.93
2023-06-11T06:00:43.871Z,5.23
2023-06-11T06:03:12.058Z,4.60
2023-06-11T06:05:40.190Z,4.97
2023-06-11T06:08:08.192Z,4.90
2023-06-11T06:10:39.067Z,4.80
2023-06-11T06:13:07.085Z,5.43
2023-06-11T06:15:35.158Z,5.10
2023-06-11T06:18:05.455Z,5.50
2023-06-11T06:20:33.466Z,4.93
2023-06-11T06:23:01.499Z,5.53
2023-06-11T06:25:29.436Z,4.50
2023-06-11T06:27:58.845Z,4.80
2023-06-11T06:30:31.998Z,5.20
2023-06-11T06:33:00.038Z,5.40
2023-06-11T06:35:28.239Z,4.80
2023-06-11T06:37:56.585Z,5.07
2023-06-11T06:40:25.124Z,5.00
2023-06-11T06:42:53.604Z,4.90
2023-06-11T06:45:22.999Z,5.10
2023-06-11T06:47:51.176Z,4.70
2023-06-11T06:50:19.233Z,5.00
2023-06-11T06:52:47.231Z,5.43
2023-06-11T06:55:15.282Z,5.27
2023-06-11T06:57:43.265Z,5.60
2023-06-11T07:00:12.623Z,5.17
2023-06-11T07:02:42.379Z,5.27
2023-06-11T07:05:11.395Z,4.70
2023-06-11T07:07:41.704Z,5.30
2023-06-11T07:10:12.358Z,5.37
2023-06-11T07:12:40.721Z,4.80
2023-06-11T07:15:09.948Z,5.07
2023-06-11T07:17:38.068Z,5.00
2023-06-11T07:20:09.697Z,5.37
2023-06-11T07:22:38.570Z,4.80
2023-06-11T07:25:07.949Z,5.50
2023-06-11T07:27:36.042Z,4.83
2023-06-11T07:30:04.392Z,5.27
2023-06-11T07:32:32.558Z,5.67
2023-06-11T07:35:00.634Z,4.83
2023-06-11T07:37:29.963Z,5.23
2023-06-11T07:39:57.918Z,4.90
2023-06-11T07:42:25.888Z,4.97
2023-06-11T07:44:53.891Z,4.83
2023-06-11T07:47:22.019Z,4.43
2023-06-11T07:49:53.018Z,4.93
2023-06-11T07:52:21.899Z,4.73
2023-06-11T07:54:54.332Z,4.73
2023-06-11T07:57:22.335Z,4.77
2023-06-11T07:59:50.382Z,5.00
2023-06-11T08:02:18.867Z,5.00
2023-06-11T08:04:46.997Z,4.50
2023-06-11T08:07:15.159Z,5.20
2023-06-11T08:09:43.178Z,5.23
2023-06-11T08:12:13.834Z,5.47
2023-06-11T08:14:41.810Z,4.87
2023-06-11T08:17:10.362Z,4.73
2023-06-11T08:19:38.537Z,5.40
2023-06-11T08:22:07.157Z,4.63
2023-06-11T08:24:35.364Z,5.60
2023-06-11T08:27:04.012Z,5.73
2023-06-11T08:29:33.522Z,4.77
2023-06-11T08:32:01.712Z,5.00
2023-06-11T08:34:29.770Z,4.57
2023-06-11T08:36:58.286Z,5.10
2023-06-11T08:39:26.769Z,5.70
2023-06-11T08:41:55.322Z,5.13
2023-06-11T08:44:26.978Z,5.57
2023-06-11T08:46:58.093Z,5.13
2023-06-11T08:49:26.264Z,5.33
2023-06-11T08:51:57.143Z,5.10
2023-06-11T08:54:26.498Z,5.30
2023-06-11T08:56:55.094Z,5.17
2023-06-11T08:59:23.150Z,5.00
2023-06-11T09:01:53.312Z,5.13
2023-06-11T09:04:23.045Z,5.00
2023-06-11T09:06:52.560Z,4.63
2023-06-11T09:09:20.706Z,5.23
2023-06-11T09:11:49.113Z,5.07
2023-06-11T09:14:17.216Z,5.20
2023-06-11T09:19:14.677Z,5.30
2023-06-11T09:21:51.631Z,4.53
2023-06-11T09:24:23.018Z,4.90
2023-06-11T09:26:53.067Z,4.53
2023-06-11T09:29:21.156Z,4.23
2023-06-11T09:31:49.309Z,4.37
2023-06-11T09:34:23.281Z,4.80
2023-06-11T09:36:53.011Z,4.33
2023-06-11T09:39:23.585Z,4.60
2023-06-11T09:41:54.189Z,4.63
2023-06-11T09:44:22.880Z,4.70
2023-06-11T09:46:51.645Z,4.80
2023-06-11T09:49:19.789Z,4.43
2023-06-11T09:51:48.272Z,4.20
2023-06-11T09:54:19.385Z,4.23
2023-06-11T09:56:52.004Z,4.80
2023-06-11T09:59:21.181Z,4.20
2023-06-11T10:01:49.672Z,4.60
2023-06-11T10:04:21.081Z,4.07
2023-06-11T10:06:52.262Z,4.70
2023-06-11T10:09:22.617Z,4.37
2023-06-11T10:11:50.663Z,4.27
2023-06-11T10:14:18.779Z,4.40
2023-06-11T10:16:51.706Z,4.43
2023-06-11T10:19:20.584Z,4.60
2023-06-11T10:21:51.487Z,4.53
2023-06-11T10:24:25.454Z,4.97
2023-06-11T10:27:08.520Z,4.80
2023-06-11T10:29:41.064Z,4.23
2023-06-11T10:32:21.737Z,4.33
2023-06-11T10:34:54.809Z,4.53
2023-06-11T10:37:29.333Z,5.10
2023-06-11T10:39:58.732Z,4.73
2023-06-11T10:42:28.702Z,5.43
2023-06-11T10:45:00.060Z,4.90
2023-06-11T10:47:31.682Z,4.53
2023-06-11T10:50:10.870Z,4.53
2023-06-11T10:52:52.645Z,5.57
2023-06-11T10:55:22.995Z,4.90
2023-06-11T10:57:53.263Z,4.40
2023-06-11T11:00:21.882Z,5.30
2023-06-11T11:02:50.877Z,5.40
2023-06-11T11:05:19.250Z,4.57
2023-06-11T11:07:47.371Z,4.70
2023-06-11T11:10:20.241Z,4.70
2023-06-11T11:12:50.322Z,4.37
2023-06-11T11:15:18.854Z,4.55
2023-06-11T11:17:47.612Z,4.22
2023-06-11T11:20:18.475Z,4.45
2023-06-11T11:22:52.951Z,4.45
2023-06-11T11:25:26.606Z,4.18
2023-06-11T11:27:56.559Z,4.10
2023-06-11T11:30:26.019Z,4.30
2023-06-11T11:32:54.559Z,4.55
2023-06-11T11:35:23.674Z,4.30
2023-06-11T11:37:52.281Z,3.90
2023-06-11T11:40:24.094Z,4.05
2023-06-11T11:42:57.773Z,4.70
2023-06-11T11:45:33.201Z,4.13
2023-06-11T11:48:05.599Z,4.53
2023-06-11T11:50:34.811Z,4.18
2023-06-11T11:53:05.399Z,4.13
2023-06-11T11:55:47.705Z,4.28
2023-06-11T11:58:25.947Z,3.67
2023-06-11T12:01:01.111Z,3.92
2023-06-11T12:03:29.563Z,3.80
2023-06-11T12:06:02.345Z,3.90
2023-06-11T12:08:31.607Z,3.67
2023-06-11T12:11:00.146Z,3.80
2023-06-11T12:13:29.910Z,4.07
2023-06-11T12:16:02.925Z,3.67
2023-06-11T12:18:32.389Z,3.75
2023-06-11T12:21:02.414Z,3.95
2023-06-11T12:23:30.820Z,4.00
2023-06-11T12:26:01.094Z,3.80
2023-06-11T12:28:30.440Z,3.78
2023-06-11T12:31:03.096Z,4.22
2023-06-11T12:33:31.730Z,4.10
2023-06-11T12:35:59.724Z,3.70
2023-06-11T12:38:27.903Z,3.88
2023-06-11T12:40:56.093Z,3.63
2023-06-11T12:43:24.121Z,3.92
2023-06-11T12:45:53.541Z,3.78
2023-06-11T12:48:21.621Z,4.18
2023-06-11T12:50:52.668Z,3.90
2023-06-11T12:53:24.596Z,3.85
2023-06-11T12:55:52.992Z,4.00
2023-06-11T12:58:23.750Z,3.38
2023-06-11T13:00:55.238Z,3.70
2023-06-11T13:03:23.273Z,4.20
2023-06-11T13:05:56.413Z,4.22
2023-06-11T13:08:26.558Z,4.15
2023-06-11T13:10:54.622Z,4.25
2023-06-11T13:13:25.764Z,4.03
2023-06-11T13:15:57.002Z,4.22
2023-06-11T13:18:24.998Z,3.95
2023-06-11T13:20:55.089Z,3.65
2023-06-11T13:23:27.450Z,4.05
2023-06-11T13:25:55.886Z,3.95
2023-06-11T13:28:31.825Z,3.88
2023-06-11T13:31:01.291Z,3.85
2023-06-11T13:33:29.210Z,4.25
2023-06-11T13:35:58.969Z,3.45
2023-06-11T13:38:27.320Z,3.90
2023-06-11T13:40:55.780Z,3.95
2023-06-11T13:43:25.918Z,3.88
2023-06-11T13:45:54.963Z,3.90
2023-06-11T13:48:24.270Z,3.83
2023-06-11T13:50:52.513Z,3.92
2023-06-11T13:53:25.537Z,3.70
2023-06-11T13:55:53.912Z,3.70
2023-06-11T13:58:23.368Z,3.50
2023-06-11T14:00:54.708Z,3.80
2023-06-11T14:03:24.527Z,3.60
2023-06-11T14:05:52.537Z,4.03
2023-06-11T14:08:20.726Z,3.85
2023-06-11T14:10:51.766Z,3.70
2023-06-11T14:13:19.766Z,3.70
2023-06-11T14:15:47.876Z,4.05
2023-06-11T14:18:16.034Z,4.15
2023-06-11T14:20:45.375Z,3.80
2023-06-11T14:23:13.347Z,3.85
2023-06-11T14:25:41.502Z,3.72
2023-06-11T14:28:09.606Z,3.75
2023-06-11T14:30:37.629Z,3.65
2023-06-11T14:33:07.522Z,3.35
2023-06-11T14:35:35.679Z,3.85
2023-06-11T14:38:04.977Z,3.72
2023-06-11T14:40:34.979Z,3.20
2023-06-11T14:43:05.937Z,3.60
2023-06-11T14:45:34.050Z,3.28
2023-06-11T14:48:03.909Z,4.20
2023-06-11T14:50:33.727Z,3.78
2023-06-11T14:53:01.991Z,3.58
2023-06-11T14:55:31.381Z,3.78
2023-06-11T14:57:59.395Z,3.85
2023-06-11T15:00:27.370Z,4.05
2023-06-11T15:02:55.917Z,3.30
2023-06-11T15:05:31.185Z,3.60
2023-06-11T15:07:59.130Z,3.42
2023-06-11T15:10:28.486Z,3.35
2023-06-11T15:12:58.392Z,3.78
2023-06-11T15:15:26.811Z,3.60
2023-06-11T15:17:54.778Z,3.65
2023-06-11T15:20:24.776Z,3.55
2023-06-11T15:22:53.141Z,3.53
2023-06-11T15:25:21.123Z,3.60
2023-06-11T15:27:51.933Z,3.45
2023-06-11T15:30:21.498Z,3.47
2023-06-11T15:32:49.472Z,3.53
2023-06-11T15:35:17.814Z,3.35
2023-06-11T15:37:45.817Z,4.00
2023-06-11T15:40:14.623Z,3.53
2023-06-11T15:42:43.564Z,3.50
2023-06-11T15:45:13.977Z,3.25
2023-06-11T15:47:44.321Z,3.40
2023-06-11T15:50:13.202Z,3.08
2023-06-11T15:52:45.936Z,3.15
2023-06-11T15:55:14.416Z,3.10
2023-06-11T15:57:42.802Z,3.25
2023-06-11T16:00:12.296Z,3.15
2023-06-11T16:02:40.898Z,3.25
2023-06-11T16:05:11.000Z,3.60
2023-06-11T16:07:41.374Z,3.53
2023-06-11T16:10:12.341Z,3.65
2023-06-11T16:12:44.035Z,3.15
2023-06-11T16:15:14.870Z,3.20
2023-06-11T16:17:44.811Z,3.35
2023-06-11T16:20:15.994Z,3.00
2023-06-11T16:22:46.602Z,3.35
2023-06-11T16:25:15.663Z,3.33
2023-06-11T16:27:44.592Z,3.40
2023-06-11T16:30:14.685Z,2.90
2023-06-11T16:32:43.240Z,3.80
2023-06-11T16:35:12.700Z,3.22
2023-06-11T16:38:08.005Z,3.50
2023-06-11T16:40:36.100Z,3.22
2023-06-11T16:43:04.190Z,3.00
2023-06-11T16:45:32.247Z,3.17
2023-06-11T16:48:00.436Z,3.33
2023-06-11T16:50:28.514Z,3.40
2023-06-11T16:52:57.833Z,2.97
2023-06-11T16:55:27.493Z,3.47
2023-06-11T16:57:58.344Z,3.40
2023-06-11T17:00:26.444Z,3.00
2023-06-11T17:02:56.343Z,3.08
2023-06-11T17:05:26.427Z,2.97
2023-06-11T17:07:58.941Z,3.28
2023-06-11T17:10:30.897Z,3.10
2023-06-11T17:12:58.910Z,2.95
2023-06-11T17:15:26.805Z,3.17
2023-06-11T17:17:59.320Z,3.05
2023-06-11T17:20:27.927Z,3.03
2023-06-11T17:23:01.863Z,2.90
2023-06-11T17:25:32.942Z,3.10
2023-06-11T17:28:01.147Z,3.53
2023-06-11T17:30:29.198Z,3.28
2023-06-11T17:33:00.748Z,3.25
2023-06-11T17:35:31.844Z,3.08
2023-06-11T17:38:01.588Z,3.22
2023-06-11T17:40:31.514Z,3.00
2023-06-11T17:42:59.984Z,3.20
2023-06-11T17:45:29.591Z,2.95
2023-06-11T17:47:58.377Z,2.92
2023-06-11T17:50:26.856Z,2.85
2023-06-11T17:52:56.328Z,3.00
2023-06-11T17:55:27.140Z,2.92
2023-06-11T17:57:56.540Z,3.20
2023-06-11T18:00:24.472Z,3.50
2023-06-11T18:02:56.272Z,3.35
2023-06-11T18:05:25.662Z,3.03
2023-06-11T18:07:53.890Z,3.20
2023-06-11T18:10:22.252Z,3.40
2023-06-11T18:12:50.285Z,3.20
2023-06-11T18:15:31.327Z,3.30
2023-06-11T18:18:01.855Z,3.47
2023-06-11T18:20:30.261Z,3.37
2023-06-11T18:22:58.706Z,3.73
2023-06-11T18:25:32.026Z,3.40
2023-06-11T18:28:01.386Z,3.40
2023-06-11T18:30:30.939Z,3.40
2023-06-11T18:32:58.984Z,3.57
2023-06-11T18:35:28.489Z,3.17
2023-06-11T18:37:56.650Z,3.40
2023-06-11T18:40:24.775Z,3.93
2023-06-11T18:42:52.956Z,3.50
2023-06-11T18:45:21.008Z,3.60
2023-06-11T18:47:50.647Z,3.67
2023-06-11T18:50:18.752Z,3.60
2023-06-11T18:52:46.817Z,3.50
2023-06-11T18:55:14.846Z,3.80
2023-06-11T18:57:43.023Z,3.90
2023-06-11T19:00:12.565Z,3.70
2023-06-11T19:02:41.076Z,3.77
2023-06-11T19:05:11.614Z,3.40
2023-06-11T19:07:40.820Z,3.50
2023-06-11T19:10:12.361Z,3.47
2023-06-11T19:12:40.982Z,3.33
2023-06-11T19:15:10.113Z,3.80
2023-06-11T19:17:38.174Z,3.47
2023-06-11T19:20:08.988Z,3.60
2023-06-11T19:22:38.929Z,3.63
2023-06-11T19:25:08.008Z,3.80
2023-06-11T19:27:36.712Z,3.87
2023-06-11T19:30:05.406Z,3.33
2023-06-11T19:32:33.447Z,3.90
2023-06-11T19:35:01.506Z,3.33
2023-06-11T19:37:32.143Z,3.33
2023-06-11T19:40:01.562Z,3.40
2023-06-11T19:42:29.536Z,3.40
2023-06-11T19:44:57.657Z,3.30
2023-06-11T19:47:25.699Z,3.87
2023-06-11T19:49:53.694Z,3.80
2023-06-11T19:52:24.049Z,3.60
2023-06-11T19:54:52.610Z,3.93
2023-06-11T19:57:22.519Z,3.80
2023-06-11T19:59:51.260Z,4.00
2023-06-11T20:02:20.614Z,3.80
2023-06-11T20:04:48.694Z,3.60
2023-06-11T20:07:16.945Z,4.27
2023-06-11T20:09:46.431Z,3.80
2023-06-11T20:12:14.912Z,3.93
2023-06-11T20:14:47.468Z,3.90
2023-06-11T20:17:17.585Z,4.17
2023-06-11T20:19:51.658Z,3.93
2023-06-11T20:22:19.631Z,4.30
2023-06-11T20:24:49.538Z,3.73
2023-06-11T20:27:21.987Z,3.83
2023-06-11T20:29:51.383Z,4.10
2023-06-11T20:32:22.848Z,3.90
2023-06-11T20:34:50.937Z,4.00
2023-06-11T20:37:21.236Z,4.30
2023-06-11T20:39:52.335Z,4.07
2023-06-11T20:42:24.546Z,4.10
2023-06-11T20:44:56.003Z,4.47
2023-06-11T20:47:29.530Z,4.60
2023-06-11T20:49:57.701Z,3.83
2023-06-11T20:52:27.339Z,4.23
2023-06-11T20:55:12.909Z,4.20
2023-06-11T20:57:57.497Z,4.30
2023-06-11T21:00:29.323Z,4.17
2023-06-11T21:03:02.606Z,4.20
2023-06-11T21:05:40.206Z,4.07
2023-06-11T21:08:10.862Z,4.10
2023-06-11T21:10:39.869Z,4.17
2023-06-11T21:13:13.838Z,3.87
2023-06-11T21:15:44.046Z,4.10
2023-06-11T21:18:12.572Z,4.17
2023-06-11T21:20:41.226Z,4.20
2023-06-11T21:23:09.183Z,4.00
2023-06-11T21:25:38.854Z,3.97
2023-06-11T21:28:10.279Z,3.80
2023-06-11T21:30:46.237Z,3.93
2023-06-11T21:33:21.776Z,4.20
2023-06-11T21:35:51.417Z,4.30
2023-06-11T21:38:19.566Z,4.10
2023-06-11T21:40:47.590Z,4.20
2023-06-11T21:43:29.597Z,3.90
2023-06-11T21:46:15.458Z,4.07
2023-06-11T21:49:00.312Z,4.03
2023-06-11T21:51:30.555Z,3.90
2023-06-11T21:54:10.848Z,4.13
2023-06-11T21:56:44.628Z,4.47
2023-06-11T21:59:12.584Z,4.17
2023-06-11T22:01:42.274Z,4.33
2023-06-11T22:04:10.321Z,4.40
2023-06-11T22:06:42.715Z,3.57
2023-06-11T22:09:16.770Z,3.90
2023-06-11T22:11:48.744Z,4.37
2023-06-11T22:14:30.101Z,4.23
2023-06-11T22:17:05.380Z,4.40
2023-06-11T22:19:38.052Z,4.30
2023-06-11T22:25:03.160Z,4.43
2023-06-11T22:27:33.115Z,4.10
2023-06-11T22:30:01.245Z,4.07
2023-06-11T22:32:30.754Z,4.10
2023-06-11T22:34:58.852Z,4.30
2023-06-11T22:37:26.930Z,4.53
2023-06-11T22:39:55.296Z,4.70
2023-06-11T22:42:23.812Z,4.30
2023-06-11T22:44:51.828Z,4.30
2023-06-11T22:47:34.377Z,4.00
2023-06-11T22:50:02.727Z,3.80
2023-06-11T22:52:39.353Z,4.23
2023-06-11T22:55:08.785Z,4.20
2023-06-11T22:57:38.543Z,4.77
2023-06-11T23:00:10.990Z,3.73
2023-06-11T23:02:40.699Z,4.23
2023-06-11T23:05:09.306Z,4.20
2023-06-11T23:07:38.368Z,4.27
2023-06-11T23:10:07.104Z,4.30
2023-06-11T23:12:35.065Z,4.73
2023-06-11T23:15:03.293Z,4.20
2023-06-11T23:17:32.676Z,4.30
2023-06-11T23:20:12.271Z,4.33
2023-06-11T23:22:40.693Z,4.50
2023-06-11T23:25:14.026Z,4.40
2023-06-11T23:27:44.370Z,4.40
2023-06-11T23:30:13.599Z,4.10
2023-06-11T23:32:42.577Z,4.53
2023-06-11T23:35:12.875Z,4.30
2023-06-11T23:37:42.273Z,4.23
2023-06-11T23:40:14.469Z,4.70
2023-06-11T23:42:44.828Z,4.43
2023-06-11T23:45:13.582Z,4.60
2023-06-11T23:47:42.538Z,4.27
2023-06-11T23:50:12.515Z,4.13
2023-06-11T23:52:40.973Z,4.40
2023-06-11T23:55:09.557Z,4.40
2023-06-11T23:57:40.029Z,3.90
